D/T METAR WX W/DIR W/SPE G/SPE TEMP DEWP
22/01/20 06:50 EGOM 220650Z AUTO 26013KT 0100 UP VV/// 07/07 Q1036 UP W (260°) 15.0mph 7°C 7°C
22/01/20 05:50 EGOM 220550Z AUTO 27010KT 0050 UP VV/// 07/07 Q1036 UP W (270°) 11.5mph 7°C 7°C
22/01/20 04:50 EGOM 220450Z AUTO 26010KT 0050 UP VV/// 07/07 Q1036 UP W (260°) 11.5mph 7°C 7°C
22/01/20 03:50 EGOM 220350Z AUTO 25008KT 0050 UP VV/// 07/07 Q1036 UP WSW (250°) 9.2mph 7°C 7°C
22/01/20 02:50 EGOM 220250Z AUTO 26009KT 0100 UP VV/// 07/07 Q1036 UP W (260°) 10.4mph 7°C 7°C
22/01/20 01:50 EGOM 220150Z AUTO 24007KT 0100 -DZ VV/// 07/07 Q1036 -DZ WSW (240°) 8.1mph 7°C 7°C
22/01/20 00:50 EGOM 220050Z AUTO 26011KT 0150 -DZ VV/// 07/07 Q1037 -DZ W (260°) 12.7mph 7°C 7°C
21/01/20 23:50 EGOM 212350Z AUTO 25011KT 0100 -DZ VV/// 07/07 Q1037 -DZ WSW (250°) 12.7mph 7°C 7°C
21/01/20 22:50 EGOM 212250Z AUTO 25015KT 0150 UP VV/// 07/07 Q1037 UP WSW (250°) 17.3mph 7°C 7°C
21/01/20 21:50 EGOM 212150Z AUTO 27013KT 0150 -RA VV/// 06/06 Q1037 -RA W (270°) 15.0mph 6°C 6°C
21/01/20 20:50 EGOM 212050Z AUTO 26012KT 0100 UP VV/// 06/06 Q1037 UP W (260°) 13.8mph 6°C 6°C
21/01/20 19:50 EGOM 211950Z AUTO 24009KT 0100 UP VV/// 06/06 Q1037 UP WSW (240°) 10.4mph 6°C 6°C
21/01/20 18:50 EGOM 211850Z AUTO 25010KT 0050 UP VV/// 06/06 Q1037 UP WSW (250°) 11.5mph 6°C 6°C
21/01/20 17:50 EGOM 211750Z AUTO 26008KT 0100 UP VV/// 06/06 Q1037 UP W (260°) 9.2mph 6°C 6°C
21/01/20 16:50 EGOM 211650Z AUTO 26012KT 0150 -DZ VV/// 06/06 Q1037 -DZ W (260°) 13.8mph 6°C 6°C
21/01/20 15:50 EGOM 211550Z AUTO 26018KT 0200 -RA VV/// 07/07 Q1036 -RA W (260°) 20.7mph 7°C 7°C
21/01/20 14:50 EGOM 211450Z 26017KT 0100 FG VV/// 07/07 Q1037 RED FG W (260°) 19.6mph 7°C 7°C
21/01/20 13:50 EGOM 211350Z 25017KT 0050 FG VV/// 06/06 Q1037 RED FG WSW (250°) 19.6mph 6°C 6°C
21/01/20 12:50 EGOM 211250Z 25013KT 0100 FG VV/// 06/06 Q1038 RED FG WSW (250°) 15.0mph 6°C 6°C
21/01/20 11:50 EGOM 211150Z 26015KT 0100 FG VV/// 06/06 Q1038 RED FG W (260°) 17.3mph 6°C 6°C
21/01/20 10:50 EGOM 211050Z 25012KT 0100 FG VV/// 06/06 Q1038 RED FG WSW (250°) 13.8mph 6°C 6°C
21/01/20 09:50 EGOM 210950Z 26013KT 0050 FG VV/// 05/05 Q1038 RED FG W (260°) 15.0mph 5°C 5°C
21/01/20 08:50 EGOM 210850Z 27013KT 0150 FG VV/// 05/05 Q1038 RED FG W (270°) 15.0mph 5°C 5°C
21/01/20 07:50 EGOM 210750Z AUTO 26010KT 0100 -DZ VV/// 05/05 Q1038 -DZ W (260°) 11.5mph 5°C 5°C
21/01/20 06:50 EGOM 210650Z AUTO 26011KT 0550 FG OVC001/// 05/05 Q1038 FG W (260°) 12.7mph 5°C 5°C
21/01/20 05:50 EGOM 210550Z AUTO 25017KT 0700 FG OVC001/// 05/05 Q1038 FG WSW (250°) 19.6mph 5°C 5°C
21/01/20 04:50 EGOM 210450Z AUTO 26010KT 2800 BR BKN002/// BKN010/// 05/05 Q1038 BR W (260°) 11.5mph 5°C 5°C
21/01/20 03:50 EGOM 210350Z AUTO 26016KT 9999 BKN010/// BKN014/// 05/05 Q1038 W (260°) 18.4mph 5°C 5°C
21/01/20 02:50 EGOM 210250Z AUTO 27013KT 9999 OVC014/// 05/05 Q1039 W (270°) 15.0mph 5°C 5°C
21/01/20 01:50 EGOM 210150Z AUTO 26014KT 9999 OVC017/// 05/04 Q1039 W (260°) 16.1mph 5°C 4°C
21/01/20 00:50 EGOM 210050Z AUTO 27015KT 9999 OVC016/// 05/04 Q1039 W (270°) 17.3mph 5°C 4°C
20/01/20 23:50 EGOM 202350Z AUTO 26017KT 9999 OVC016/// 05/04 Q1039 W (260°) 19.6mph 5°C 4°C
20/01/20 22:50 EGOM 202250Z AUTO 25016KT 9999 FEW013/// BKN017/// 05/04 Q1039 WSW (250°) 18.4mph 5°C 4°C
20/01/20 21:50 EGOM 202150Z AUTO 26016KT 9999 OVC012/// 05/04 Q1040 W (260°) 18.4mph 5°C 4°C
20/01/20 20:50 EGOM 202050Z AUTO 25018KT 9999 BKN007/// 04/04 Q1040 WSW (250°) 20.7mph 4°C 4°C
20/01/20 19:50 EGOM 201950Z AUTO 26019KT 5000 BR BKN001/// 05/04 Q1040 BR W (260°) 21.9mph 5°C 4°C
20/01/20 18:50 EGOM 201850Z AUTO 26020KT 5000 BR BKN002/// BKN011/// 05/05 Q1040 BR W (260°) 23.0mph 5°C 5°C
20/01/20 17:50 EGOM 201750Z AUTO 26024KT 8000 BR OVC003/// 05/04 Q1040 BR W (260°) 27.6mph 5°C 4°C
20/01/20 16:50 EGOM 201650Z AUTO 25023KT 9999 OVC004/// 05/04 Q1040 WSW (250°) 26.5mph 5°C 4°C
20/01/20 15:50 EGOM 201550Z AUTO 25023G38KT 9999 OVC006/// 05/04 Q1040 WSW (250°) 26.5mph 43.7mph 5°C 4°C
20/01/20 14:50 EGOM 201450Z 25020G32KT 9999 BKN010 05/04 Q1041 GRN WSW (250°) 23.0mph 36.8mph 5°C 4°C
20/01/20 13:50 EGOM 201350Z 25020KT 9999 BKN006 BKN012 05/04 Q1041 YLO1 WSW (250°) 23.0mph 5°C 4°C
20/01/20 12:50 EGOM 201250Z 25019KT 9999 BKN008 05/04 Q1042 GRN WSW (250°) 21.9mph 5°C 4°C
20/01/20 11:50 EGOM 201150Z 25020KT 9999 BKN010 05/04 Q1042 GRN WSW (250°) 23.0mph 5°C 4°C
20/01/20 10:50 EGOM 201050Z 25020KT 9999 OVC010 05/04 Q1042 GRN WSW (250°) 23.0mph 5°C 4°C
20/01/20 09:50 EGOM 200950Z 25020KT 9999 OVC010 04/04 Q1042 GRN WSW (250°) 23.0mph 4°C 4°C
20/01/20 08:50 EGOM 200850Z 25018KT 9999 BKN008 BKN013 04/03 Q1042 GRN WSW (250°) 20.7mph 4°C 3°C
20/01/20 07:50 EGOM 200750Z AUTO 25018KT 9999 BKN004/// BKN012/// 04/03 Q1042 WSW (250°) 20.7mph 4°C 3°C